Time;durP1;ratioP1;P1;durP2;ratioP2;P2;SDS_P1;SDS_P2;PMS_P1;PMS_P2;Temp;Humidity;BMP_temperature;BMP_pressure;BME280_temperature;BME280_humidity;BME280_pressure;Samples;Min_cycle;Max_cycle;Signal;HPM_P1;HPM_P2
2020/12/21 00:00:08;;;;;;;;;;;;;;;4.12;80.56;100716.66;5076931;28;19928;-73
2020/12/21 00:02:41;;;;;;;;;;;;;;;4.11;80.41;100725.03;5076976;28;20046;-74
2020/12/21 00:05:10;;;;;;;;;;;;;;;4.11;80.88;100722.50;5058648;28;20019;-74
2020/12/21 00:07:40;;;;;;;;;;;;;;;4.10;80.69;100723.31;5076560;28;19932;-73
2020/12/21 00:10:11;;;;;;;;;;;;;;;4.10;80.96;100723.31;5076809;28;20019;-73
2020/12/21 00:12:43;;;;;;;;;;;;;;;4.11;80.91;100719.97;5076536;28;20285;-73
2020/12/21 00:15:10;;;;;;;;;;;;;;;4.11;81.13;100725.03;5076473;28;19924;-73
2020/12/21 00:17:38;;;;;;;;;;;;;;;4.10;80.79;100723.31;5076564;28;19924;-73
2020/12/21 00:20:05;;;;;;;;;;;;;;;4.08;81.00;100724.09;5076362;28;20390;-73
2020/12/21 00:22:36;;;;;;;;;;;;;;;4.11;81.03;100735.13;5076517;28;19969;-73
2020/12/21 00:25:04;;;;;;;;;;;;;;;4.07;80.90;100724.91;5076230;28;19924;-73
2020/12/21 00:27:36;;;;;;;;;;;;;;;4.05;80.97;100731.53;5076373;28;19963;-73
2020/12/21 00:30:05;;;;;;;;;;;;;;;4.06;81.23;100730.75;5076235;28;19924;-73
2020/12/21 00:32:39;;;;;;;;;;;;;;;4.04;81.31;100729.84;5076036;28;19924;-73
2020/12/21 00:35:13;;;;;;;;;;;;;;;4.03;82.08;100733.16;5076116;28;19924;-73
2020/12/21 00:37:41;;;;;;;;;;;;;;;4.04;81.42;100734.03;5058423;28;19966;-73
2020/12/21 00:40:12;;;;;;;;;;;;;;;4.03;81.38;100733.16;5076226;28;19932;-73
2020/12/21 00:42:40;;;;;;;;;;;;;;;4.03;81.44;100727.25;5076128;28;19928;-73
2020/12/21 00:45:08;;;;;;;;;;;;;;;4.02;81.50;100731.44;5096131;28;19963;-73
2020/12/21 00:47:37;;;;;;;;;;;;;;;4.06;81.50;100733.28;5096570;28;19931;-73
2020/12/21 00:50:05;;;;;;;;;;;;;;;4.05;82.24;100736.59;5096036;28;20396;-73
2020/12/21 00:52:34;;;;;;;;;;;;;;;4.05;81.74;100736.59;5095824;28;19966;-73
2020/12/21 00:55:07;;;;;;;;;;;;;;;4.04;81.80;100739.06;5095885;28;19924;-73
2020/12/21 00:57:36;;;;;;;;;;;;;;;4.02;81.97;100741.53;5095829;28;19951;-71
2020/12/21 01:00:11;;;;;;;;;;;;;;;4.02;82.33;100741.53;5095848;28;19924;-73
2020/12/21 01:02:42;;;;;;;;;;;;;;;4.00;82.12;100738.09;5095735;28;19927;-73
2020/12/21 01:05:09;;;;;;;;;;;;;;;4.01;82.55;100734.75;5095932;28;19967;-73
2020/12/21 01:07:40;;;;;;;;;;;;;;;3.98;82.18;100734.63;5095974;28;19992;-73
2020/12/21 01:10:07;;;;;;;;;;;;;;;3.95;82.87;100739.56;5095802;28;19985;-72
2020/12/21 01:12:34;;;;;;;;;;;;;;;3.98;82.95;100734.63;5095593;28;19924;-72
2020/12/21 01:15:05;;;;;;;;;;;;;;;3.96;82.70;100731.16;5095399;28;20331;-72
2020/12/21 01:17:34;;;;;;;;;;;;;;;3.96;82.39;100731.16;5095520;28;20394;-72
2020/12/21 01:20:01;;;;;;;;;;;;;;;3.95;82.31;100729.47;5095552;28;19924;-72
2020/12/21 01:22:33;;;;;;;;;;;;;;;3.93;82.42;100736.09;5095334;28;19931;-72
2020/12/21 01:25:04;;;;;;;;;;;;;;;3.96;82.41;100730.28;5095585;28;19931;-72
2020/12/21 01:27:34;;;;;;;;;;;;;;;3.99;82.33;100730.44;5095550;28;19924;-72
2020/12/21 01:30:06;;;;;;;;;;;;;;;3.96;82.88;100725.25;5095229;28;19924;-72
2020/12/21 01:32:38;;;;;;;;;;;;;;;3.92;82.62;100729.31;5095130;28;19931;-72
2020/12/21 01:35:09;;;;;;;;;;;;;;;3.91;82.58;100735.16;5095081;28;19924;-72
2020/12/21 01:37:43;;;;;;;;;;;;;;;3.91;83.04;100735.16;5095164;28;19930;-72
2020/12/21 01:40:14;;;;;;;;;;;;;;;3.88;82.60;100724.94;5095348;28;20305;-72
2020/12/21 01:42:42;;;;;;;;;;;;;;;3.86;83.20;100724.00;5095139;28;19924;-73
2020/12/21 01:45:12;;;;;;;;;;;;;;;3.84;83.38;100730.66;5094812;28;19927;-72
2020/12/21 01:47:43;;;;;;;;;;;;;;;3.83;83.33;100733.13;5095496;28;19924;-72
2020/12/21 01:50:16;;;;;;;;;;;;;;;3.82;83.67;100727.19;5095428;28;19928;-72
2020/12/21 01:52:47;;;;;;;;;;;;;;;3.80;83.37;100732.97;5094365;28;19924;-72
2020/12/21 01:55:15;;;;;;;;;;;;;;;3.82;83.92;100731.38;5094811;28;19954;-72
2020/12/21 01:57:46;;;;;;;;;;;;;;;3.81;84.08;100735.59;5076949;28;19928;-72
2020/12/21 02:00:14;;;;;;;;;;;;;;;3.80;84.06;100738.91;5094739;28;20408;-72
2020/12/21 02:02:46;;;;;;;;;;;;;;;3.80;83.67;100743.94;5076954;28;20420;-72
2020/12/21 02:05:13;;;;;;;;;;;;;;;3.79;84.24;100746.41;5094731;28;20030;-72
2020/12/21 02:07:44;;;;;;;;;;;;;;;3.77;84.48;100738.75;5094589;28;19947;-72
2020/12/21 02:10:15;;;;;;;;;;;;;;;3.77;84.20;100743.81;5094533;28;19924;-72
2020/12/21 02:12:46;;;;;;;;;;;;;;;3.80;84.33;100743.06;5094568;28;19928;-72
2020/12/21 02:15:13;;;;;;;;;;;;;;;3.82;83.78;100742.34;5094749;28;19924;-72
2020/12/21 02:17:42;;;;;;;;;;;;;;;3.82;84.48;100742.34;5094367;28;19932;-72
2020/12/21 02:20:13;;;;;;;;;;;;;;;3.82;84.07;100741.47;5094360;28;20023;-72
2020/12/21 02:22:46;;;;;;;;;;;;;;;3.83;84.10;100739.03;5094697;28;20293;-72
2020/12/21 02:25:13;;;;;;;;;;;;;;;3.83;83.89;100739.03;5094284;28;19923;-72
2020/12/21 02:28:01;;;;;;;;;;;;;;;3.85;83.35;100742.47;5092341;28;19925;-72
2020/12/21 02:30:29;;;;;;;;;;;;;;;3.88;83.34;100742.63;5092367;28;19924;-72
2020/12/21 02:32:56;;;;;;;;;;;;;;;3.85;83.71;100742.47;5092482;28;19932;-72
2020/12/21 02:35:26;;;;;;;;;;;;;;;3.85;83.92;100742.47;5075765;28;19924;-72
2020/12/21 02:37:56;;;;;;;;;;;;;;;3.83;83.95;100749.13;5092089;28;19924;-72
2020/12/21 02:40:24;;;;;;;;;;;;;;;3.77;83.58;100743.81;5092499;28;20478;-73
2020/12/21 02:42:51;;;;;;;;;;;;;;;3.74;83.89;100748.72;5091697;28;19962;-74
2020/12/21 02:45:22;;;;;;;;;;;;;;;3.71;84.84;100753.66;5092550;28;19928;-72
2020/12/21 02:47:52;;;;;;;;;;;;;;;3.67;84.90;100753.44;5094242;28;19988;-73
2020/12/21 02:50:22;;;;;;;;;;;;;;;3.65;84.88;100752.50;5094247;28;19977;-73
2020/12/21 02:52:50;;;;;;;;;;;;;;;3.64;85.74;100751.66;5093997;28;19947;-73
2020/12/21 02:55:21;;;;;;;;;;;;;;;3.63;85.31;100752.44;5094485;28;19924;-73
2020/12/21 02:57:55;;;;;;;;;;;;;;;3.62;85.79;100748.22;5094203;28;20022;-73
2020/12/21 03:00:22;;;;;;;;;;;;;;;3.63;85.92;100744.00;5094237;28;19924;-73
2020/12/21 03:02:50;;;;;;;;;;;;;;;3.61;86.20;100743.06;5094314;28;19942;-73
2020/12/21 03:05:17;;;;;;;;;;;;;;;3.58;85.98;100738.75;5095287;28;19955;-73
2020/12/21 03:07:45;;;;;;;;;;;;;;;3.58;86.48;100741.28;5097906;28;19924;-73
2020/12/21 03:10:21;;;;;;;;;;;;;;;3.57;86.70;100741.22;5097880;28;19925;-73
2020/12/21 03:12:48;;;;;;;;;;;;;;;3.57;86.85;100744.63;5097943;28;19924;-73
2020/12/21 03:15:21;;;;;;;;;;;;;;;3.57;86.53;100753.84;5097824;28;19968;-73
2020/12/21 03:17:52;;;;;;;;;;;;;;;3.57;86.71;100754.72;5098100;28;19924;-73
2020/12/21 03:20:22;;;;;;;;;;;;;;;3.60;86.79;100751.47;5097763;28;19924;-73
2020/12/21 03:22:52;;;;;;;;;;;;;;;3.58;86.92;100746.31;5097943;28;20024;-73
2020/12/21 03:25:21;;;;;;;;;;;;;;;3.57;87.02;100749.66;5097653;28;19928;-73
2020/12/21 03:27:53;;;;;;;;;;;;;;;3.58;86.70;100746.31;5097603;28;19959;-73
2020/12/21 03:30:23;;;;;;;;;;;;;;;3.56;86.80;100752.09;5097552;28;19967;-73
2020/12/21 03:32:54;;;;;;;;;;;;;;;3.56;86.54;100752.97;5097613;28;19928;-73
2020/12/21 03:35:29;;;;;;;;;;;;;;;3.56;87.07;100745.41;5097452;28;20373;-73
2020/12/21 03:38:03;;;;;;;;;;;;;;;3.57;87.05;100747.13;5097487;28;19924;-73
2020/12/21 03:40:32;;;;;;;;;;;;;;;3.58;86.80;100746.31;5097376;28;19924;-73
2020/12/21 03:43:00;;;;;;;;;;;;;;;3.62;86.36;100749.88;5097016;28;20105;-73
2020/12/21 03:45:27;;;;;;;;;;;;;;;3.61;86.43;100746.47;5097164;28;20408;-73
2020/12/21 03:47:54;;;;;;;;;;;;;;;3.60;86.44;100754.81;5097775;28;19931;-73
2020/12/21 03:50:22;;;;;;;;;;;;;;;3.58;86.25;100745.44;5097315;28;19923;-73
2020/12/21 03:52:49;;;;;;;;;;;;;;;3.58;86.76;100748.84;5097154;28;19937;-73
2020/12/21 03:55:20;;;;;;;;;;;;;;;3.57;86.97;100757.22;5097019;28;19977;-73
2020/12/21 03:57:51;;;;;;;;;;;;;;;3.57;86.62;100749.66;5097073;28;20282;-73
2020/12/21 04:00:21;;;;;;;;;;;;;;;3.56;86.54;100747.06;5097435;28;19924;-73
2020/12/21 04:02:54;;;;;;;;;;;;;;;3.57;87.23;100742.09;5097255;28;20369;-73
2020/12/21 04:05:22;;;;;;;;;;;;;;;3.55;86.88;100751.22;5096812;28;19930;-73
2020/12/21 04:07:49;;;;;;;;;;;;;;;3.55;87.09;100735.25;5097072;28;19973;-73
2020/12/21 04:10:20;;;;;;;;;;;;;;;3.58;87.02;100741.28;5096689;28;19924;-73
2020/12/21 04:12:52;;;;;;;;;;;;;;;3.60;86.99;100746.41;5097043;28;19932;-73
2020/12/21 04:15:22;;;;;;;;;;;;;;;3.60;86.85;100747.25;5096641;28;19952;-72
2020/12/21 04:17:52;;;;;;;;;;;;;;;3.58;86.59;100753.03;5096842;28;19924;-72
2020/12/21 04:20:22;;;;;;;;;;;;;;;3.55;86.89;100755.44;5096583;28;19924;-72
2020/12/21 04:22:50;;;;;;;;;;;;;;;3.55;86.90;100752.91;5096593;28;19928;-72
2020/12/21 04:25:17;;;;;;;;;;;;;;;3.55;86.97;100756.28;5096470;28;19993;-73
2020/12/21 04:27:48;;;;;;;;;;;;;;;3.57;86.44;100764.81;5096421;28;19924;-72
2020/12/21 04:30:19;;;;;;;;;;;;;;;3.57;87.07;100759.75;5096493;28;19928;-72
2020/12/21 04:32:52;;;;;;;;;;;;;;;3.57;86.73;100758.88;5096436;28;19927;-72
2020/12/21 04:35:22;;;;;;;;;;;;;;;3.56;86.80;100758.00;5096331;28;19931;-72
2020/12/21 04:37:50;;;;;;;;;;;;;;;3.56;87.06;100757.16;5096278;28;19924;-72
2020/12/21 04:40:18;;;;;;;;;;;;;;;3.54;86.98;100754.56;5096471;28;20396;-72
2020/12/21 04:42:48;;;;;;;;;;;;;;;3.54;87.11;100754.56;5096227;28;20332;-72
2020/12/21 04:45:22;;;;;;;;;;;;;;;3.54;86.61;100762.13;5076176;28;19924;-72
2020/12/21 04:47:53;;;;;;;;;;;;;;;3.53;86.84;100767.97;5076229;28;19932;-72
2020/12/21 04:50:27;;;;;;;;;;;;;;;3.54;87.37;100768.84;5075848;28;20005;-72
2020/12/21 04:52:54;;;;;;;;;;;;;;;3.57;86.71;100768.97;5076184;28;19925;-72
2020/12/21 04:55:22;;;;;;;;;;;;;;;3.58;86.78;100765.66;5075837;28;19929;-72
2020/12/21 04:57:52;;;;;;;;;;;;;;;3.55;87.32;100773.94;5075529;28;19963;-72
2020/12/21 05:00:26;;;;;;;;;;;;;;;3.51;87.39;100774.59;5075682;28;19924;-73
2020/12/21 05:02:57;;;;;;;;;;;;;;;3.52;87.73;100770.44;5075512;28;20006;-73
2020/12/21 05:05:29;;;;;;;;;;;;;;;3.51;87.62;100763.66;5075532;28;19924;-72
2020/12/21 05:07:57;;;;;;;;;;;;;;;3.49;87.60;100761.06;5075667;28;20052;-73
2020/12/21 05:10:29;;;;;;;;;;;;;;;3.50;87.83;100765.34;5063323;28;19925;-72
2020/12/21 05:13:00;;;;;;;;;;;;;;;3.49;87.47;100763.59;5055617;28;19929;-73
2020/12/21 05:15:31;;;;;;;;;;;;;;;3.51;87.54;100758.59;5055610;28;19929;-73
2020/12/21 05:18:02;;;;;;;;;;;;;;;3.53;87.37;100757.88;5037693;28;19932;-72
2020/12/21 05:20:33;;;;;;;;;;;;;;;3.52;87.92;100760.34;5055280;28;19931;-73
2020/12/21 05:23:00;;;;;;;;;;;;;;;3.54;88.04;100764.66;5055190;28;19932;-72
2020/12/21 05:25:31;;;;;;;;;;;;;;;3.56;87.87;100768.13;5055029;28;20374;-73
2020/12/21 05:28:05;;;;;;;;;;;;;;;3.54;87.77;100767.19;5054523;28;19928;-73
2020/12/21 05:30:33;;;;;;;;;;;;;;;3.54;87.88;100769.72;5054994;28;19925;-73
2020/12/21 05:33:03;;;;;;;;;;;;;;;3.58;88.20;100766.50;5055006;28;20046;-73
2020/12/21 05:35:31;;;;;;;;;;;;;;;3.55;87.80;100766.38;5055149;28;19925;-73
2020/12/21 05:37:59;;;;;;;;;;;;;;;3.58;88.05;100770.69;5055114;28;20386;-73
2020/12/21 05:40:29;;;;;;;;;;;;;;;3.57;87.67;100768.97;5054807;28;19924;-73
2020/12/21 05:42:56;;;;;;;;;;;;;;;3.56;88.12;100778.22;5056153;28;19973;-73
2020/12/21 05:45:27;;;;;;;;;;;;;;;3.54;87.63;100774.75;5074711;28;19928;-73
2020/12/21 05:48:00;;;;;;;;;;;;;;;3.55;88.36;100770.56;5074745;28;19924;-73
2020/12/21 05:50:30;;;;;;;;;;;;;;;3.56;87.97;100773.16;5074847;28;19928;-74
2020/12/21 05:52:57;;;;;;;;;;;;;;;3.58;87.79;100765.66;5074677;28;20382;-73
2020/12/21 05:55:28;;;;;;;;;;;;;;;3.54;88.38;100769.72;5074753;28;19931;-73
2020/12/21 05:57:59;;;;;;;;;;;;;;;3.54;88.32;100764.66;5074512;28;19978;-73
2020/12/21 06:00:29;;;;;;;;;;;;;;;3.51;87.98;100764.50;5074588;28;20441;-73
2020/12/21 06:03:01;;;;;;;;;;;;;;;3.57;88.33;100759.75;5074493;28;19981;-73
2020/12/21 06:05:32;;;;;;;;;;;;;;;3.57;88.49;100759.75;5074228;28;19925;-73
2020/12/21 06:08:02;;;;;;;;;;;;;;;3.61;88.78;100766.66;5074412;28;19925;-73
2020/12/21 06:10:30;;;;;;;;;;;;;;;3.57;88.09;100769.84;5074363;28;19950;-73
2020/12/21 06:13:00;;;;;;;;;;;;;;;3.57;88.64;100769.84;5074276;28;19987;-73
2020/12/21 06:15:29;;;;;;;;;;;;;;;3.63;88.84;100770.09;5074453;28;20275;-73
2020/12/21 06:17:57;;;;;;;;;;;;;;;3.59;88.50;100772.44;5056540;28;20352;-73
2020/12/21 06:20:25;;;;;;;;;;;;;;;3.58;88.60;100765.66;5056516;28;19925;-73
2020/12/21 06:22:53;;;;;;;;;;;;;;;3.61;88.30;100764.13;5074393;28;19925;-73
2020/12/21 06:25:24;;;;;;;;;;;;;;;3.64;88.27;100766.81;5074066;28;20291;-73
2020/12/21 06:27:55;;;;;;;;;;;;;;;3.64;88.42;100764.28;5073963;28;20289;-73
2020/12/21 06:30:29;;;;;;;;;;;;;;;3.61;88.47;100776.75;5074663;28;19947;-73
2020/12/21 06:33:00;;;;;;;;;;;;;;;3.66;88.04;100775.31;5074100;28;19925;-73
2020/12/21 06:35:30;;;;;;;;;;;;;;;3.68;88.15;100778.75;5074051;28;19931;-73
2020/12/21 06:38:01;;;;;;;;;;;;;;;3.69;88.54;100775.44;5074153;28;19924;-73
2020/12/21 06:40:31;;;;;;;;;;;;;;;3.64;88.25;100766.81;5073860;28;19924;-73
2020/12/21 06:43:02;;;;;;;;;;;;;;;3.61;88.65;100778.41;5073910;28;19959;-74
2020/12/21 06:45:33;;;;;;;;;;;;;;;3.59;88.33;100780.00;5073852;28;19986;-73
2020/12/21 06:48:03;;;;;;;;;;;;;;;3.59;88.33;100782.53;5073768;28;20326;-73
2020/12/21 06:50:36;;;;;;;;;;;;;;;3.61;88.63;100776.75;5074185;28;19931;-73
2020/12/21 06:53:07;;;;;;;;;;;;;;;3.65;88.05;100783.66;5074005;28;19924;-73
2020/12/21 06:55:35;;;;;;;;;;;;;;;3.61;88.57;100784.31;5073866;28;20391;-73
2020/12/21 06:58:02;;;;;;;;;;;;;;;3.66;88.77;100782.88;5074008;28;19932;-73
2020/12/21 07:00:37;;;;;;;;;;;;;;;3.72;88.14;100787.34;5074101;28;19925;-73
2020/12/21 07:03:08;;;;;;;;;;;;;;;3.74;88.40;100794.16;5073653;28;20360;-73
2020/12/21 07:05:37;;;;;;;;;;;;;;;3.76;88.48;100790.06;5073714;28;19925;-73
2020/12/21 07:08:05;;;;;;;;;;;;;;;3.73;88.35;100800.00;5073868;28;19925;-72
2020/12/21 07:10:33;;;;;;;;;;;;;;;3.72;88.33;100805.84;5073887;28;19932;-72
2020/12/21 07:13:24;;;;;;;;;;;;;;;3.75;88.41;100800.94;5015194;28;19925;-72
2020/12/21 07:15:51;;;;;;;;;;;;;;;3.75;88.45;100800.94;5031902;28;19925;-73
2020/12/21 07:18:22;;;;;;;;;;;;;;;3.77;87.95;100814.50;5031710;28;19974;-72
2020/12/21 07:20:51;;;;;;;;;;;;;;;3.74;88.26;100806.78;5031806;28;20330;-73
2020/12/21 07:23:18;;;;;;;;;;;;;;;3.79;88.15;100812.91;5031835;28;19925;-72
2020/12/21 07:25:48;;;;;;;;;;;;;;;3.74;88.23;100809.31;5031715;28;19930;-72
2020/12/21 07:28:21;;;;;;;;;;;;;;;3.79;88.54;100812.06;5025986;28;19925;-72
2020/12/21 07:30:49;;;;;;;;;;;;;;;3.79;88.28;100807.84;5034577;28;19931;-73
2020/12/21 07:33:17;;;;;;;;;;;;;;;3.77;88.16;100809.44;5073627;28;19924;-72
2020/12/21 07:35:44;;;;;;;;;;;;;;;3.79;88.92;100802.78;5073376;28;19924;-73
2020/12/21 07:38:16;;;;;;;;;;;;;;;3.77;88.67;100819.53;5074827;28;19924;-73
2020/12/21 07:40:44;;;;;;;;;;;;;;;3.79;88.43;100807.00;5055576;28;19990;-72
2020/12/21 07:43:15;;;;;;;;;;;;;;;3.77;88.24;100814.50;5073024;28;19952;-72
2020/12/21 07:45:43;;;;;;;;;;;;;;;3.80;88.41;100813.75;5073611;28;19925;-72
2020/12/21 07:48:10;;;;;;;;;;;;;;;3.81;88.36;100816.38;5073297;28;19969;-73
2020/12/21 07:50:39;;;;;;;;;;;;;;;3.86;88.78;100819.94;5073585;28;19940;-73
2020/12/21 07:53:10;;;;;;;;;;;;;;;3.84;88.85;100821.53;5076880;28;19972;-72
2020/12/21 07:55:39;;;;;;;;;;;;;;;3.85;88.50;100818.22;5076803;28;20336;-73
2020/12/21 07:58:09;;;;;;;;;;;;;;;3.85;88.37;100813.19;5077236;28;20397;-72
2020/12/21 08:00:40;;;;;;;;;;;;;;;3.88;88.45;100813.31;5077064;28;19925;-73
2020/12/21 08:03:12;;;;;;;;;;;;;;;3.89;88.12;100814.16;5076746;28;19970;-72
2020/12/21 08:05:41;;;;;;;;;;;;;;;3.88;88.45;100817.50;5076586;28;20027;-72
2020/12/21 08:08:22;;;;;;;;;;;;;;;3.86;88.36;100819.94;5077186;28;19931;-73
2020/12/21 08:10:56;;;;;;;;;;;;;;;3.90;88.28;100816.78;5058774;28;20465;-72
2020/12/21 08:13:27;;;;;;;;;;;;;;;3.94;88.07;100827.84;5076566;28;19978;-72
2020/12/21 08:15:58;;;;;;;;;;;;;;;3.90;88.88;100826.88;5076707;28;19924;-73
2020/12/21 08:18:31;;;;;;;;;;;;;;;3.89;88.56;100830.19;5076748;28;19932;-73
2020/12/21 08:20:58;;;;;;;;;;;;;;;3.90;88.65;100821.81;5076373;28;20339;-72
2020/12/21 08:23:26;;;;;;;;;;;;;;;3.95;88.64;100825.41;5076559;28;19924;-73
2020/12/21 08:25:58;;;;;;;;;;;;;;;3.96;88.24;100824.59;5076262;28;20259;-73
2020/12/21 08:28:32;;;;;;;;;;;;;;;3.96;88.48;100829.66;5076400;28;20365;-73
2020/12/21 08:31:06;;;;;;;;;;;;;;;3.96;88.87;100827.13;5076282;28;19931;-72
2020/12/21 08:33:34;;;;;;;;;;;;;;;3.96;88.90;100829.66;5058559;28;19925;-73
2020/12/21 08:36:16;;;;;;;;;;;;;;;3.99;88.80;100841.56;5076107;28;19928;-73
2020/12/21 08:38:43;;;;;;;;;;;;;;;3.98;88.89;100829.75;5076335;28;19925;-73
2020/12/21 08:41:12;;;;;;;;;;;;;;;3.98;88.22;100825.53;5076054;28;19928;-73
2020/12/21 08:43:40;;;;;;;;;;;;;;;3.98;88.94;100828.06;5068866;28;19925;-73
2020/12/21 08:46:08;;;;;;;;;;;;;;;4.01;88.50;100815.56;5055779;28;19925;-73
2020/12/21 08:48:40;;;;;;;;;;;;;;;4.03;88.30;100821.53;5056030;28;19959;-73
2020/12/21 08:51:12;;;;;;;;;;;;;;;4.05;88.58;100817.41;5055892;28;20389;-73
2020/12/21 08:53:58;;;;;;;;;;;;;;;4.05;88.38;100812.38;5055742;28;19924;-73
2020/12/21 08:56:26;;;;;;;;;;;;;;;4.05;88.27;100812.38;5055890;28;20402;-73
2020/12/21 08:58:56;;;;;;;;;;;;;;;4.04;87.88;100800.56;5055807;28;19929;-73
2020/12/21 09:01:24;;;;;;;;;;;;;;;4.08;87.81;100804.06;5055650;28;19924;-73
2020/12/21 09:03:51;;;;;;;;;;;;;;;4.11;88.28;100795.75;5052340;28;20456;-73
2020/12/21 09:06:19;;;;;;;;;;;;;;;4.13;87.80;100799.25;5070953;28;19924;-73
2020/12/21 09:08:55;;;;;;;;;;;;;;;4.14;87.95;100806.00;5074592;28;20316;-73
2020/12/21 09:11:22;;;;;;;;;;;;;;;4.14;87.51;100800.94;5074695;28;20037;-73
2020/12/21 09:13:51;;;;;;;;;;;;;;;4.16;87.43;100796.81;5073883;28;19924;-73
2020/12/21 09:16:23;;;;;;;;;;;;;;;4.20;87.31;100798.69;5074545;28;20015;-73
2020/12/21 09:18:50;;;;;;;;;;;;;;;4.22;87.11;100795.44;5074309;28;19924;-73
2020/12/21 09:21:19;;;;;;;;;;;;;;;4.21;87.18;100797.88;5074183;28;20029;-73
2020/12/21 09:23:46;;;;;;;;;;;;;;;4.20;87.06;100793.66;5073716;28;19928;-73
2020/12/21 09:26:14;;;;;;;;;;;;;;;4.17;86.91;100796.03;5073874;28;19925;-73
2020/12/21 09:28:42;;;;;;;;;;;;;;;4.24;86.82;100787.91;5073925;28;19929;-73
2020/12/21 09:31:11;;;;;;;;;;;;;;;4.25;87.12;100787.13;5073825;28;20390;-73
2020/12/21 09:33:47;;;;;;;;;;;;;;;4.26;86.99;100788.84;5073928;28;19947;-73
2020/12/21 09:36:15;;;;;;;;;;;;;;;4.28;87.09;100784.69;5074891;28;19963;-73
2020/12/21 09:38:46;;;;;;;;;;;;;;;4.30;86.98;100788.16;5074955;28;19954;-74
2020/12/21 09:41:16;;;;;;;;;;;;;;;4.34;86.88;100790.03;5057022;28;19924;-73
2020/12/21 09:43:47;;;;;;;;;;;;;;;4.34;86.71;100790.03;5074629;28;19931;-74
2020/12/21 09:46:19;;;;;;;;;;;;;;;4.32;86.94;100786.56;5074633;28;19931;-73
2020/12/21 09:48:49;;;;;;;;;;;;;;;4.35;87.18;100784.16;5074735;28;19966;-73
2020/12/21 09:51:17;;;;;;;;;;;;;;;4.38;86.79;100789.34;5074627;28;19925;-73
2020/12/21 09:53:47;;;;;;;;;;;;;;;4.39;86.87;100786.03;5056951;28;19925;-73
2020/12/21 09:56:18;;;;;;;;;;;;;;;4.39;86.90;100788.56;5056956;28;19930;-73
2020/12/21 09:58:49;;;;;;;;;;;;;;;4.42;86.63;100793.72;5074519;28;20305;-73
2020/12/21 10:01:17;;;;;;;;;;;;;;;4.37;86.51;100780.91;5074784;28;19924;-73
2020/12/21 10:03:51;;;;;;;;;;;;;;;4.39;86.75;100779.28;5074452;28;20304;-73
2020/12/21 10:06:24;;;;;;;;;;;;;;;4.39;86.12;100773.41;5074393;28;19925;-73
2020/12/21 10:08:55;;;;;;;;;;;;;;;4.39;86.43;100768.34;5074403;28;19928;-73
2020/12/21 10:11:23;;;;;;;;;;;;;;;4.42;86.13;100768.44;5074557;28;19924;-73
2020/12/21 10:13:51;;;;;;;;;;;;;;;4.40;86.25;100770.91;5073828;28;19925;-74
2020/12/21 10:16:18;;;;;;;;;;;;;;;4.40;85.69;100770.06;5074178;28;20031;-73
2020/12/21 10:18:46;;;;;;;;;;;;;;;4.39;86.19;100763.28;5074231;28;20287;-73
2020/12/21 10:21:14;;;;;;;;;;;;;;;4.38;85.69;100764.06;5073487;28;20381;-73
2020/12/21 10:23:42;;;;;;;;;;;;;;;4.36;85.83;100748.00;5074282;28;19935;-73
2020/12/21 10:26:12;;;;;;;;;;;;;;;4.37;85.85;100752.22;5074043;28;20014;-73
2020/12/21 10:28:40;;;;;;;;;;;;;;;4.35;85.88;100759.75;5073938;28;19924;-73
2020/12/21 10:31:08;;;;;;;;;;;;;;;4.37;86.00;100754.75;5056414;28;20499;-73
2020/12/21 10:33:38;;;;;;;;;;;;;;;4.38;85.51;100764.06;5073958;28;19924;-73
2020/12/21 10:36:06;;;;;;;;;;;;;;;4.43;85.97;100762.59;5073974;28;19924;-73
2020/12/21 10:38:34;;;;;;;;;;;;;;;4.48;85.92;100768.72;5071017;28;19928;-74
2020/12/21 10:41:04;;;;;;;;;;;;;;;4.44;85.91;100752.53;4750855;23;21780;-73
2020/12/21 10:43:33;;;;;;;;;;;;;;;4.48;85.99;100753.56;5070682;28;20016;-72
2020/12/21 10:46:01;;;;;;;;;;;;;;;4.51;85.56;100748.63;5071419;28;19924;-72
2020/12/21 10:48:29;;;;;;;;;;;;;;;4.50;85.88;100750.28;5067037;28;19924;-73
2020/12/21 10:50:57;;;;;;;;;;;;;;;4.50;85.88;100737.66;5073364;28;20411;-73
2020/12/21 10:53:25;;;;;;;;;;;;;;;4.46;85.84;100740.00;5073228;28;20313;-74
2020/12/21 10:55:53;;;;;;;;;;;;;;;4.43;85.78;100739.84;5073687;28;19936;-74
2020/12/21 10:58:20;;;;;;;;;;;;;;;4.46;85.78;100734.94;5073644;28;19924;-73
2020/12/21 11:00:47;;;;;;;;;;;;;;;4.49;85.68;100738.44;5073352;28;19924;-73
2020/12/21 11:03:18;;;;;;;;;;;;;;;4.49;85.75;100735.03;5073038;28;19925;-72
2020/12/21 11:05:46;;;;;;;;;;;;;;;4.45;85.78;100733.19;5073558;28;20349;-72
2020/12/21 11:08:13;;;;;;;;;;;;;;;4.49;85.18;100727.44;5073033;28;20301;-73
2020/12/21 11:10:41;;;;;;;;;;;;;;;4.52;85.46;100727.59;5073094;28;19931;-72
2020/12/21 11:13:09;;;;;;;;;;;;;;;4.51;85.07;100733.47;5055460;28;19948;-72
2020/12/21 11:15:37;;;;;;;;;;;;;;;4.54;85.15;100733.56;5047841;28;20294;-71
2020/12/21 11:18:05;;;;;;;;;;;;;;;4.53;84.86;100734.38;5057675;28;19929;-72
2020/12/21 11:20:33;;;;;;;;;;;;;;;4.53;85.09;100731.84;5071686;28;19931;-72
2020/12/21 11:23:00;;;;;;;;;;;;;;;4.53;85.06;100736.91;5068537;28;19931;-71
2020/12/21 11:25:27;;;;;;;;;;;;;;;4.50;85.23;100739.31;5060725;28;19924;-71
2020/12/21 11:27:55;;;;;;;;;;;;;;;4.45;85.01;100743.31;5077332;28;19925;-72
2020/12/21 11:30:24;;;;;;;;;;;;;;;4.45;85.09;100740.78;5077175;28;20322;-72
2020/12/21 11:32:51;;;;;;;;;;;;;;;4.46;84.98;100740.00;5074863;28;19924;-71
2020/12/21 11:35:19;;;;;;;;;;;;;;;4.45;85.16;100730.66;5074776;28;19962;-71
2020/12/21 11:37:46;;;;;;;;;;;;;;;4.44;84.80;100736.53;5076134;28;19935;-71
2020/12/21 11:40:25;;;;;;;;;;;;;;;4.43;85.08;100738.19;5074696;28;20014;-71
2020/12/21 11:42:52;;;;;;;;;;;;;;;4.41;85.24;100739.81;5076153;28;20045;-71
2020/12/21 11:45:20;;;;;;;;;;;;;;;4.39;85.50;100743.06;5076664;28;19924;-71
2020/12/21 11:47:48;;;;;;;;;;;;;;;4.39;85.23;100738.84;5076871;28;19924;-71
2020/12/21 11:50:17;;;;;;;;;;;;;;;4.40;85.00;100730.50;5076608;28;20014;-71
2020/12/21 11:52:44;;;;;;;;;;;;;;;4.41;85.51;100736.41;5076439;28;19933;-71
2020/12/21 11:55:12;;;;;;;;;;;;;;;4.41;85.20;100736.41;5076552;28;20290;-71
2020/12/21 11:57:39;;;;;;;;;;;;;;;4.40;84.94;100734.66;5075677;28;19960;-72
2020/12/21 12:00:07;;;;;;;;;;;;;;;4.39;84.94;100722.84;5066027;28;20296;-71
2020/12/21 12:02:34;;;;;;;;;;;;;;;4.38;85.02;100727.03;5069365;28;19924;-71
2020/12/21 12:05:05;;;;;;;;;;;;;;;4.40;85.32;100735.53;5076344;28;19932;-71
2020/12/21 12:07:32;;;;;;;;;;;;;;;4.42;85.34;100735.59;5076235;28;19936;-72
2020/12/21 12:09:59;;;;;;;;;;;;;;;4.36;85.27;100728.66;5076336;28;20404;-71
2020/12/21 12:12:27;;;;;;;;;;;;;;;4.36;85.28;100727.78;5076460;28;20066;-71
2020/12/21 12:14:54;;;;;;;;;;;;;;;4.36;84.84;100732.84;5076104;28;20370;-72
2020/12/21 12:17:21;;;;;;;;;;;;;;;4.33;85.23;100727.66;5076091;28;20421;-71
2020/12/21 12:19:50;;;;;;;;;;;;;;;4.32;85.28;100739.41;5076266;28;20027;-71
2020/12/21 12:22:18;;;;;;;;;;;;;;;4.32;85.39;100736.03;5075611;28;19924;-71
2020/12/21 12:24:46;;;;;;;;;;;;;;;4.33;85.49;100742.81;5076319;28;20023;-71
2020/12/21 12:27:13;;;;;;;;;;;;;;;4.31;85.20;100737.69;5075779;28;19928;-71
2020/12/21 12:29:41;;;;;;;;;;;;;;;4.31;85.63;100747.81;5075993;28;20378;-71
2020/12/21 12:32:10;;;;;;;;;;;;;;;4.31;85.41;100752.84;5075671;28;19932;-72
2020/12/21 12:34:39;;;;;;;;;;;;;;;4.29;85.46;100746.88;5075684;28;19924;-71
2020/12/21 12:37:06;;;;;;;;;;;;;;;4.27;85.34;100752.69;5073820;28;19966;-71
2020/12/21 12:39:35;;;;;;;;;;;;;;;4.26;85.67;100756.00;5075405;28;20015;-71
2020/12/21 12:42:03;;;;;;;;;;;;;;;4.24;85.45;100743.31;5074101;28;19928;-72
2020/12/21 12:44:30;;;;;;;;;;;;;;;4.23;85.75;100745.75;5075544;28;19932;-71
2020/12/21 12:46:58;;;;;;;;;;;;;;;4.22;85.94;100749.97;5073679;28;19928;-71
2020/12/21 12:49:25;;;;;;;;;;;;;;;4.23;85.68;100741.56;5073224;28;19977;-71
2020/12/21 12:51:53;;;;;;;;;;;;;;;4.24;85.52;100747.50;5074969;28;19933;-71
2020/12/21 12:54:21;;;;;;;;;;;;;;;4.23;85.93;100746.63;5075416;28;20066;-71
2020/12/21 12:56:49;;;;;;;;;;;;;;;4.23;86.29;100748.28;5075483;28;19924;-71
2020/12/21 12:59:17;;;;;;;;;;;;;;;4.20;85.85;100741.44;5072477;28;20385;-72